Bei Facebook empfehlenBei Twitter postenGoogle plusPinterest

Das Wetter im Erzgebirge am 02.12.2016

Wetter und Klima am 02.12.2016 Holzhau im Erzgebirge (630m ü.NN)
Letzte gemessene Temperatur und Uhrzeit der Messung23:45:00 Uhr-4.20 °C
Temperatur (Maximum / Höchstwert) und Uhrzeit der Messung04:15:00 Uhr2.60 °C
Temperatur (Minimum / Tiefstwert) und Uhrzeit der Messung23:45:00-4.20 °C
Errechneter Absolutwert der Temperaturschwankungen zwischen Tmin und Tmax des Tages6.80 K
Errechnete Tagesmitteltemperatur0.15313 °C
Gesamt - Niederschlag des Tages (in flüssiger Form)2.07 Liter / m²
Luftdruck (Maximum / Höchstwert) und Zeitpunkt der Messung23:30:00 Uhr1017.60 hPa
Luftdruck (Minimum / Tiefstwert) und Zeitpunkt der Messung04:15:00 Uhr1006.30 hPa
Errechneter Absolutwert der Luftdruckschwankungen des Tages11.30 hPa
Höchste gemessene Windgeschwindigkeit und Uhrzeit der Messung23:45:00 Uhr0.00 km/h
Errechnete Windhäufigkeit in Relation zu den Messwerten des Tages0.00000 %
Niedrigste Windkühle (Windchill) und Zeitpunkt der Messung23:45:00 Uhr-4.20 °C
Taupunkt (Maximum / Höchstwert) und Uhrzeit der Messung02:30:00 Uhr2.30 °C
Taupunkt (Minimum / Tiefstwert) und Uhrzeit der Messung22:30:00-5.20 °C
Anzahl der automatisch eingelesenen Messwerte 96

Detaillierte Wetter- und Klima- Messwerte für den 02.12.2016 in Holzhau im Erzgebirge (630m ü.NN)
ZeitTemperaturLuftdruckRel. LuftfeuchteWindWindrichtungWindchillTaupunktNiederschlag l/m²
23:45:00-4.20 °C1017.50 hPa94.00 %-5.10 °C2.07
23:30:00-4.10 °C1017.60 hPa94.00 %-5.00 °C2.07
23:15:00-3.90 °C1017.60 hPa94.00 %-4.80 °C2.07
23:00:00-3.90 °C1017.40 hPa94.00 %-4.80 °C2.07
22:45:00-4.10 °C1017.10 hPa94.00 %-5.00 °C2.07
22:30:00-4.10 °C1017.40 hPa93.00 %-5.20 °C2.07
22:15:00-3.90 °C1017.20 hPa93.00 %-5.00 °C2.07
22:00:00-3.60 °C1017.40 hPa93.00 %-4.70 °C2.07
21:45:00-3.10 °C1017.30 hPa93.00 %-4.20 °C2.07
21:30:00-2.70 °C1017.10 hPa94.00 %-3.60 °C2.07
21:15:00-2.30 °C1017.00 hPa94.00 %-3.20 °C2.07
21:00:00-2.20 °C1017.00 hPa94.00 %-3.10 °C2.07
20:45:00-1.80 °C1016.90 hPa94.00 %-2.70 °C2.07
20:30:00-1.70 °C1016.80 hPa94.00 %-2.60 °C2.07
20:15:00-1.60 °C1016.80 hPa94.00 %-2.50 °C2.07
20:00:00-1.60 °C1016.80 hPa94.00 %-2.50 °C2.07
19:45:00-1.50 °C1016.70 hPa93.00 %-2.60 °C2.07
19:30:00-1.50 °C1016.60 hPa93.00 %-2.60 °C2.07
19:15:00-1.50 °C1016.40 hPa93.00 %-2.60 °C2.07
19:00:00-1.40 °C1016.40 hPa93.00 %-2.50 °C2.07
18:45:00-1.40 °C1016.40 hPa93.00 %-2.50 °C2.07
18:30:00-1.40 °C1016.20 hPa93.00 %-2.50 °C2.07
18:15:00-1.40 °C1016.10 hPa93.00 %-2.50 °C2.07
18:00:00-1.60 °C1016.00 hPa93.00 %-2.70 °C2.07
17:45:00-1.40 °C1016.00 hPa92.00 %-2.70 °C2.07
17:30:00-1.10 °C1015.80 hPa92.00 %-2.40 °C2.07
17:15:00-1.00 °C1015.80 hPa92.00 %-2.30 °C2.07
17:00:00-0.80 °C1015.60 hPa92.00 %-2.10 °C2.07
16:45:00-0.80 °C1015.40 hPa92.00 %-2.10 °C2.07
16:30:00-0.80 °C1015.20 hPa92.00 %-2.10 °C2.07
16:15:00-0.90 °C1015.20 hPa91.00 %-2.30 °C2.07
16:00:00-0.80 °C1015.40 hPa91.00 %-2.20 °C2.07
15:45:00-0.50 °C1015.10 hPa90.00 %-2.10 °C2.07
15:30:00-0.20 °C1015.20 hPa90.00 %-1.80 °C2.07
15:15:00-0.10 °C1015.00 hPa90.00 %-1.70 °C2.07
15:00:000.40 °C1014.90 hPa91.00 %-0.90 °C2.07
14:45:000.60 °C1014.80 hPa91.00 %-0.70 °C2.07
14:30:000.90 °C1014.70 hPa91.00 %-0.40 °C2.07
14:15:001.10 °C1014.50 hPa92.00 %-0.10 °C2.07
14:00:000.40 °C1014.50 hPa93.00 %-0.60 °C2.07
13:45:000.90 °C1014.40 hPa93.00 %-0.10 °C2.07
13:30:001.10 °C1014.40 hPa93.00 %0.10 °C2.07
13:15:001.20 °C1014.50 hPa94.00 %0.30 °C2.07
13:00:001.30 °C1014.30 hPa95.00 %0.60 °C2.07
12:45:001.10 °C1014.30 hPa95.00 %0.40 °C2.07
12:30:000.80 °C1014.30 hPa95.00 %0.10 °C2.07
12:15:000.60 °C1014.10 hPa95.00 %-0.10 °C2.07
12:00:000.60 °C1013.80 hPa96.00 %0.00 °C2.07
11:45:000.60 °C1013.40 hPa96.00 %0.00 °C2.07
11:30:000.60 °C1013.10 hPa96.00 %0.00 °C2.07
11:15:000.60 °C1013.00 hPa96.00 %0.00 °C2.07
11:00:000.50 °C1012.70 hPa96.00 %-0.10 °C2.07
10:45:000.40 °C1012.40 hPa97.00 %0.00 °C2.07
10:30:000.40 °C1012.40 hPa97.00 %0.00 °C2.07
10:15:000.40 °C1012.20 hPa97.00 %0.00 °C2.07
10:00:000.40 °C1012.00 hPa97.00 %0.00 °C2.07
09:45:000.30 °C1011.60 hPa97.00 %-0.10 °C2.07
09:30:000.30 °C1011.60 hPa97.00 %-0.10 °C2.07
09:15:000.30 °C1011.20 hPa97.00 %-0.10 °C2.07
09:00:000.40 °C1010.60 hPa97.00 %0.00 °C2.07
08:45:000.40 °C1010.30 hPa97.00 %0.00 °C2.07
08:30:000.60 °C1010.20 hPa97.00 %0.20 °C2.07
08:15:000.80 °C1009.70 hPa97.00 %0.40 °C2.07
08:00:000.80 °C1009.60 hPa97.00 %0.40 °C2.07
07:45:001.00 °C1009.20 hPa97.00 %0.60 °C2.07
07:30:001.30 °C1008.60 hPa97.00 %0.90 °C2.07
07:15:001.30 °C1008.30 hPa97.00 %0.90 °C2.07
07:00:001.30 °C1008.20 hPa97.00 %0.90 °C2.07
06:45:000.90 °C1008.00 hPa97.00 %0.50 °C2.07
06:30:000.90 °C1007.80 hPa97.00 %0.50 °C2.07
06:15:001.90 °C1007.70 hPa97.00 %1.50 °C2.07
06:00:001.60 °C1007.10 hPa97.00 %1.20 °C2.07
05:45:001.30 °C1007.10 hPa97.00 %0.90 °C2.07
05:30:001.30 °C1007.10 hPa97.00 %0.90 °C2.07
05:15:001.60 °C1006.90 hPa97.00 %1.20 °C2.07
05:00:001.90 °C1007.00 hPa97.00 %1.50 °C2.07
04:45:002.30 °C1006.50 hPa97.00 %1.90 °C1.04
04:30:002.40 °C1006.50 hPa97.00 %2.00 °C 
04:15:002.60 °C1006.30 hPa97.00 %2.20 °C 
04:00:002.50 °C1006.60 hPa97.00 %2.10 °C 
03:45:002.60 °C1006.50 hPa97.00 %2.20 °C 
03:30:002.60 °C1006.70 hPa97.00 %2.20 °C 
03:15:002.60 °C1006.80 hPa97.00 %2.20 °C 
03:00:002.60 °C1007.00 hPa97.00 %2.20 °C 
02:45:002.60 °C1007.00 hPa97.00 %2.20 °C 
02:30:002.60 °C1007.00 hPa98.00 %2.30 °C 
02:15:002.60 °C1007.10 hPa97.00 %2.20 °C 
02:00:002.50 °C1007.10 hPa97.00 %2.10 °C 
01:45:002.50 °C1007.10 hPa97.00 %2.10 °C 
01:30:002.40 °C1007.20 hPa97.00 %2.00 °C 
01:15:002.40 °C1007.00 hPa97.00 %2.00 °C 
01:00:002.30 °C1007.10 hPa97.00 %1.90 °C 
00:45:002.20 °C1007.40 hPa97.00 %1.80 °C 
00:30:002.10 °C1007.40 hPa97.00 %1.70 °C 
00:15:002.10 °C1007.70 hPa97.00 %1.70 °C 
00:00:002.00 °C1007.80 hPa97.00 %1.60 °C 

Permanenter Link zu dieser Seite: Wetter im Erzgebirge am 02.12.2016
Performance-Info: Die Erstellung der Seite / Statistik(en) / Tabelle(n) erforderte 5 Datenbankserver-Abfrage(n) und dauerte 100 Millisekunden. (Dieser Messwert ist von der Gesamt-Auslastung des Servers abhängig.)
Erzgebirge - Wetter | Erzgebirge - Wetter (Mobilgeräte) | Komplette Klimadatenbank